Huvudsida
METAR-TAF:

METAR-TAF

Flygplatser :

Turaif, Saudiarabien

latitud: 31-41N, longitud: 038-44E, höjd: 813 m

Aktuellt väderrapport

Denna rapport gjordes för 33 minuter sedan, klockan 03:00 UTC
Vind 10 kt från väst
Temperatur 20°C
Fuktighet 60%
Tryck 1012 hPa
Sikt 10 km eller mer
Inga moln under 1 500 m eller inga cumulonimbus

METAR: OETR 200300Z 26010KT CAVOK 20/12 Q1012

Tid: 06:33 (03:33 UTC)

Väderprognos

Denna rapport gjordes för 4 timmar och 33 minuter sedan, klockan 23:00 UTC
Prognos gäller från 20 kl. 00 UTC till 21 kl. 06 UTC
Vind 3 kt varierande vindriktning
Sikt 10 km eller mer
Inga moln under 1 500 m eller inga cumulonimbus
Blir
från 20 kl. 06 UTC till 20 kl. 08 UTC
Vind 10 kt från väst/nordväst i byarna ända upp till 20 kt
Temporärt
från 20 kl. 06 UTC till 20 kl. 14 UTC
Sikt: 4000 m
utbrett stoft, högt damm drev

TAF: OETR 192300Z 2000/2106 VRB03KT CAVOK BECMG 2006/2008 29010G20KT TEMPO 2006/2014 4000 DU BLDU

Aktuella väderrapporter och prognoser från 4000 flygplatser (METAR- och TAF-rapporter).

De tillgängliga stationerna syns som gula och röda prickar på kartan.

För musen över prickarna för att se namnen på stationerna.

Klicka sedan för att få väderrapporter och prognoser.

För att ändra kartan: Klicka på de gröna knapparna med ett svart kors på för att zooma in; den gröna knappen med ett streck på för att zooma ut; eller på de gröna pilarna för angränsande kartor.


METAR-TAF: